createdAt,value
2022-09-10T00:00:17.860Z,99210.78
2022-09-10T00:02:45.338Z,99202.16
2022-09-10T00:05:13.229Z,99203.25
2022-09-10T00:07:39.908Z,99199.97
2022-09-10T00:10:06.826Z,99193.22
2022-09-10T00:12:35.096Z,99195.91
2022-09-10T00:15:02.063Z,99189.44
2022-09-10T00:17:29.231Z,99178.16
2022-09-10T00:19:55.947Z,99178.88
2022-09-10T00:22:22.634Z,99197.22
2022-09-10T00:24:49.249Z,99196.38
2022-09-10T00:27:15.975Z,99209.59
2022-09-10T00:29:42.640Z,99200.09
2022-09-10T00:32:09.767Z,99191.19
2022-09-10T00:34:36.420Z,99190.06
2022-09-10T00:37:03.203Z,99188.72
2022-09-10T00:39:29.848Z,99199.22
2022-09-10T00:41:57.938Z,99187.63
2022-09-10T00:44:43.721Z,99181.97
2022-09-10T00:47:24.259Z,99179.81
2022-09-10T00:49:54.907Z,99178.75
2022-09-10T00:52:22.540Z,99178.75
2022-09-10T00:54:49.697Z,99175.47
2022-09-10T00:57:19.531Z,99178.72
2022-09-10T00:59:54.065Z,99180.31
2022-09-10T01:02:21.801Z,99170.09
2022-09-10T01:04:49.751Z,99173.00
2022-09-10T01:07:16.737Z,99170.00
2022-09-10T01:09:44.021Z,99162.72
2022-09-10T01:12:36.028Z,99158.16
2022-09-10T01:15:15.813Z,99157.34
2022-09-10T01:18:01.121Z,99159.50
2022-09-10T01:20:47.173Z,99162.97
2022-09-10T01:23:17.600Z,99159.75
2022-09-10T01:26:11.825Z,99150.56
2022-09-10T01:28:43.271Z,99144.63
2022-09-10T01:31:19.066Z,99142.47
2022-09-10T01:34:02.240Z,99142.16
2022-09-10T01:36:31.395Z,99139.44
2022-09-10T01:38:58.162Z,99138.91
2022-09-10T01:41:27.739Z,99139.72
2022-09-10T01:43:54.852Z,99147.00
2022-09-10T01:46:45.417Z,99140.53
2022-09-10T01:49:40.621Z,99134.59
2022-09-10T01:52:28.615Z,99133.47
2022-09-10T01:55:02.632Z,99125.91
2022-09-10T01:57:58.909Z,99130.16
2022-09-10T02:00:34.220Z,99129.69
2022-09-10T02:03:08.019Z,99131.28
2022-09-10T02:05:36.907Z,99123.94
2022-09-10T02:08:10.556Z,99120.69
2022-09-10T02:10:59.970Z,99118.00
2022-09-10T02:13:30.690Z,99118.53
2022-09-10T02:16:34.406Z,99109.38
2022-09-10T02:19:02.228Z,99109.88
2022-09-10T02:21:29.792Z,99109.00
2022-09-10T02:23:59.144Z,99107.16
2022-09-10T02:26:28.662Z,99111.44
2022-09-10T02:28:55.980Z,99113.59
2022-09-10T02:31:22.675Z,99117.63
2022-09-10T02:33:51.185Z,99113.25
2022-09-10T02:36:18.094Z,99116.22
2022-09-10T02:38:45.657Z,99120.78
2022-09-10T02:41:12.393Z,99118.09
2022-09-10T02:43:43.048Z,99123.19
2022-09-10T02:46:10.456Z,99131.75
2022-09-10T02:48:38.788Z,99121.84
2022-09-10T02:51:07.390Z,99135.31
2022-09-10T02:53:35.835Z,99129.84
2022-09-10T02:56:04.997Z,99138.03
2022-09-10T02:58:32.014Z,99140.16
2022-09-10T03:01:19.409Z,99132.63
2022-09-10T03:03:55.097Z,99126.06
2022-09-10T03:06:23.340Z,99134.94
2022-09-10T03:08:50.176Z,99137.34
2022-09-10T03:11:17.408Z,99135.44
2022-09-10T03:13:45.855Z,99136.84
2022-09-10T03:16:13.777Z,99139.22
2022-09-10T03:18:41.568Z,99140.59
2022-09-10T03:21:21.007Z,99140.84
2022-09-10T03:23:49.871Z,99136.25
2022-09-10T03:26:22.239Z,99126.56
2022-09-10T03:28:50.248Z,99121.78
2022-09-10T03:31:19.421Z,99133.03
2022-09-10T03:33:49.265Z,99127.88
2022-09-10T03:36:15.897Z,99130.81
2022-09-10T03:38:43.966Z,99132.91
2022-09-10T03:41:11.235Z,99132.31
2022-09-10T03:43:38.348Z,99131.25
2022-09-10T03:46:08.404Z,99133.75
2022-09-10T03:48:39.552Z,99130.22
2022-09-10T03:51:08.037Z,99127.25
2022-09-10T03:53:36.046Z,99122.09
2022-09-10T03:56:03.517Z,99125.91
2022-09-10T03:58:31.998Z,99113.25
2022-09-10T04:00:58.993Z,99114.00
2022-09-10T04:03:25.981Z,99105.94
2022-09-10T04:05:52.738Z,99106.19
2022-09-10T04:08:20.608Z,99103.25
2022-09-10T04:10:48.207Z,99101.66
2022-09-10T04:13:15.704Z,99109.50
2022-09-10T04:15:46.075Z,99106.53
2022-09-10T04:18:13.967Z,99103.97
2022-09-10T04:20:40.735Z,99109.41
2022-09-10T04:23:09.979Z,99101.69
2022-09-10T04:25:38.509Z,99099.03
2022-09-10T04:28:05.564Z,99098.56
2022-09-10T04:30:33.002Z,99102.59
2022-09-10T04:33:00.865Z,99091.44
2022-09-10T04:35:30.138Z,99092.97
2022-09-10T04:37:57.546Z,99095.69
2022-09-10T04:40:24.679Z,99091.72
2022-09-10T04:42:51.341Z,99101.13
2022-09-10T04:45:19.254Z,99101.69
2022-09-10T04:47:46.946Z,99102.81
2022-09-10T04:50:15.608Z,99096.28
2022-09-10T04:53:02.254Z,99093.47
2022-09-10T04:55:31.445Z,99091.78
2022-09-10T04:57:58.152Z,99094.28
2022-09-10T05:00:26.671Z,99092.38
2022-09-10T05:02:53.924Z,99095.91
2022-09-10T05:05:20.851Z,99095.97
2022-09-10T05:07:48.740Z,99096.75
2022-09-10T05:10:15.472Z,99102.41
2022-09-10T05:12:42.368Z,99107.03
2022-09-10T05:15:10.660Z,99111.69
2022-09-10T05:17:37.342Z,99102.25
2022-09-10T05:20:07.290Z,99103.06
2022-09-10T05:22:40.634Z,99103.31
2022-09-10T05:25:09.034Z,99104.44
2022-09-10T05:27:36.566Z,99106.31
2022-09-10T05:30:04.575Z,99111.44
2022-09-10T05:32:32.811Z,99110.91
2022-09-10T05:34:59.655Z,99114.44
2022-09-10T05:37:26.968Z,99109.28
2022-09-10T05:39:53.849Z,99122.78
2022-09-10T05:42:22.262Z,99125.75
2022-09-10T05:44:49.435Z,99121.69
2022-09-10T05:47:16.240Z,99130.88
2022-09-10T05:49:43.632Z,99126.84
2022-09-10T05:52:10.300Z,99127.63
2022-09-10T05:54:37.145Z,99121.19
2022-09-10T05:57:04.216Z,99133.38
2022-09-10T05:59:30.850Z,99126.38
2022-09-10T06:01:58.196Z,99126.38
2022-09-10T06:04:25.604Z,99131.22
2022-09-10T06:06:53.343Z,99141.47
2022-09-10T06:09:20.479Z,99143.94
2022-09-10T06:11:59.883Z,99142.53
2022-09-10T06:14:26.558Z,99152.25
2022-09-10T06:16:56.389Z,99160.31
2022-09-10T06:19:25.108Z,99164.38
2022-09-10T06:21:52.541Z,99167.88
2022-09-10T06:24:20.976Z,99158.59
2022-09-10T06:26:50.798Z,99166.63
2022-09-10T06:29:19.414Z,99171.44
2022-09-10T06:31:47.345Z,99170.31
2022-09-10T06:34:14.282Z,99162.88
2022-09-10T06:36:42.035Z,99170.19
2022-09-10T06:39:09.851Z,99160.97
2022-09-10T06:41:49.026Z,99163.06
2022-09-10T06:44:35.063Z,99157.34
2022-09-10T06:47:46.209Z,99169.53
2022-09-10T06:49:59.922Z,99175.19
2022-09-10T06:52:30.779Z,99177.00
2022-09-10T06:55:02.129Z,99177.44
2022-09-10T06:57:47.463Z,99182.94
2022-09-10T07:00:16.506Z,99185.50
2022-09-10T07:02:46.104Z,99170.09
2022-09-10T07:05:13.014Z,99170.56
2022-09-10T07:07:41.791Z,99176.03
2022-09-10T07:10:09.241Z,99171.75
2022-09-10T07:12:36.336Z,99161.47
2022-09-10T07:15:05.908Z,99154.53
2022-09-10T07:17:35.831Z,99158.00
2022-09-10T07:20:03.382Z,99168.75
2022-09-10T07:22:43.796Z,99168.81
2022-09-10T07:25:12.873Z,99163.53
2022-09-10T07:27:54.078Z,99168.81
2022-09-10T07:30:22.317Z,99170.94
2022-09-10T07:32:50.494Z,99175.00
2022-09-10T07:35:21.312Z,99183.25
2022-09-10T07:37:49.316Z,99185.81
2022-09-10T07:40:15.964Z,99184.94
2022-09-10T07:42:46.042Z,99179.25
2022-09-10T07:45:16.258Z,99180.63
2022-09-10T07:47:44.675Z,99183.78
2022-09-10T07:50:12.231Z,99184.44
2022-09-10T07:52:38.928Z,99184.56
2022-09-10T07:55:06.085Z,99185.66
2022-09-10T07:57:35.002Z,99188.63
2022-09-10T08:00:03.246Z,99187.22
2022-09-10T08:02:42.946Z,99186.28
2022-09-10T08:05:13.876Z,99191.41
2022-09-10T08:07:41.396Z,99194.00
2022-09-10T08:10:11.255Z,99197.75
2022-09-10T08:12:40.434Z,99196.44
2022-09-10T08:15:08.610Z,99202.34
2022-09-10T08:17:38.501Z,99195.56
2022-09-10T08:20:07.958Z,99182.19
2022-09-10T08:22:35.703Z,99184.28
2022-09-10T08:25:02.751Z,99186.84
2022-09-10T08:27:33.252Z,99193.75
2022-09-10T08:30:04.010Z,99190.34
2022-09-10T08:32:31.106Z,99195.06
2022-09-10T08:34:57.753Z,99184.78
2022-09-10T08:37:25.489Z,99187.41
2022-09-10T08:39:54.102Z,99186.50
2022-09-10T08:42:39.214Z,99192.78
2022-09-10T08:45:10.708Z,99187.22
2022-09-10T08:47:54.710Z,99187.13
2022-09-10T08:50:47.568Z,99187.66
2022-09-10T08:53:28.165Z,99190.13
2022-09-10T08:56:03.660Z,99183.88
2022-09-10T08:58:51.934Z,99189.13
2022-09-10T09:01:45.002Z,99182.69
2022-09-10T09:04:20.856Z,99197.63
2022-09-10T09:06:52.981Z,99197.94
2022-09-10T09:09:22.099Z,99189.97
2022-09-10T09:11:58.018Z,99188.38
2022-09-10T09:14:36.200Z,99191.28
2022-09-10T09:17:34.732Z,99175.81
2022-09-10T09:20:10.387Z,99180.63
2022-09-10T09:22:52.518Z,99185.25
2022-09-10T09:25:47.205Z,99180.84
2022-09-10T09:28:39.420Z,99177.78
2022-09-10T09:31:28.694Z,99177.22
2022-09-10T09:34:07.263Z,99180.78
2022-09-10T09:36:38.042Z,99173.66
2022-09-10T09:39:13.431Z,99170.34
2022-09-10T09:41:53.194Z,99172.31
2022-09-10T09:44:29.112Z,99164.19
2022-09-10T09:46:56.756Z,99159.53
2022-09-10T09:49:23.880Z,99156.06
2022-09-10T09:51:52.426Z,99150.84
2022-09-10T09:57:17.135Z,99160.97
2022-09-10T09:59:43.767Z,99149.97
2022-09-10T10:02:18.708Z,99152.75
2022-09-10T10:05:00.627Z,99156.28
2022-09-10T10:07:31.605Z,99155.97
2022-09-10T10:10:01.114Z,99158.44
2022-09-10T10:12:31.692Z,99158.13
2022-09-10T10:14:59.323Z,99146.13
2022-09-10T10:17:33.003Z,99151.19
2022-09-10T10:20:20.035Z,99152.09
2022-09-10T10:22:48.577Z,99164.00
2022-09-10T10:25:41.611Z,99151.84
2022-09-10T10:28:17.880Z,99145.09
2022-09-10T10:30:44.809Z,99151.00
2022-09-10T10:33:18.306Z,99168.53
2022-09-10T10:36:07.450Z,99159.38
2022-09-10T10:38:40.653Z,99160.19
2022-09-10T10:41:33.649Z,99163.47
2022-09-10T10:44:27.747Z,99153.53
2022-09-10T10:47:00.566Z,99161.03
2022-09-10T10:49:43.274Z,99158.00
2022-09-10T10:52:21.743Z,99161.44
2022-09-10T10:55:03.780Z,99158.53
2022-09-10T10:57:34.543Z,99146.91
2022-09-10T11:00:09.398Z,99163.72
2022-09-10T11:02:49.658Z,99152.94
2022-09-10T11:05:25.916Z,99155.03
2022-09-10T11:07:52.948Z,99153.13
2022-09-10T11:10:36.746Z,99142.88
2022-09-10T11:13:09.415Z,99147.22
2022-09-10T11:15:48.714Z,99141.72
2022-09-10T11:18:21.541Z,99146.47
2022-09-10T11:21:33.024Z,99131.47
2022-09-10T11:24:16.830Z,99135.47
2022-09-10T11:27:14.644Z,99122.91
2022-09-10T11:30:11.772Z,99135.59
2022-09-10T11:32:55.645Z,99140.81
2022-09-10T11:35:27.619Z,99132.00
2022-09-10T11:38:20.677Z,99128.72
2022-09-10T11:40:53.390Z,99127.97
2022-09-10T11:43:44.525Z,99117.94
2022-09-10T11:46:23.525Z,99124.09
2022-09-10T11:49:03.625Z,99104.72
2022-09-10T11:51:37.145Z,99106.84
2022-09-10T11:54:07.332Z,99111.41
2022-09-10T11:56:36.968Z,99114.72
2022-09-10T11:59:15.783Z,99108.50
2022-09-10T12:01:59.352Z,99110.41
2022-09-10T12:04:47.665Z,99107.13
2022-09-10T12:07:25.654Z,99106.44
2022-09-10T12:10:12.187Z,99098.69
2022-09-10T12:12:51.255Z,99093.44
2022-09-10T12:15:23.357Z,99090.50
2022-09-10T12:17:53.081Z,99102.25
2022-09-10T12:20:27.132Z,99096.09
2022-09-10T12:22:55.535Z,99101.28
2022-09-10T12:25:22.082Z,99096.72
2022-09-10T12:27:51.377Z,99090.28
2022-09-10T12:30:31.336Z,99091.94
2022-09-10T12:33:00.727Z,99088.94
2022-09-10T12:35:34.637Z,99087.84
2022-09-10T12:38:42.049Z,99079.84
2022-09-10T12:41:33.427Z,99091.22
2022-09-10T12:44:01.251Z,99088.44
2022-09-10T12:46:28.325Z,99083.38
2022-09-10T12:48:58.208Z,99086.50
2022-09-10T12:51:31.968Z,99089.38
2022-09-10T12:54:26.032Z,99090.19
2022-09-10T12:57:05.370Z,99084.56
2022-09-10T12:59:53.040Z,99090.69
2022-09-10T13:02:26.380Z,99081.13
2022-09-10T13:04:55.387Z,99095.22
2022-09-10T13:07:41.598Z,99095.38
2022-09-10T13:10:16.428Z,99095.41
2022-09-10T13:12:47.247Z,99096.47
2022-09-10T13:15:22.708Z,99084.25
2022-09-10T13:17:51.212Z,99074.41
2022-09-10T13:20:23.534Z,99077.31
2022-09-10T13:23:09.528Z,99071.69
2022-09-10T13:25:43.887Z,99073.66
2022-09-10T13:28:29.101Z,99056.09
2022-09-10T13:31:09.231Z,99053.53
2022-09-10T13:33:52.202Z,99029.19
2022-09-10T13:36:39.861Z,99038.53
2022-09-10T13:39:43.092Z,99033.59
2022-09-10T13:42:15.911Z,99046.59
2022-09-10T13:45:14.451Z,99039.38
2022-09-10T13:47:48.897Z,99039.50
2022-09-10T13:50:23.063Z,99039.34
2022-09-10T13:52:55.439Z,99042.22
2022-09-10T13:55:29.981Z,99047.69
2022-09-10T13:58:00.311Z,99049.47
2022-09-10T14:00:35.807Z,99051.06
2022-09-10T14:03:02.445Z,99052.53
2022-09-10T14:05:48.258Z,99046.25
2022-09-10T14:11:11.514Z,99051.06
2022-09-10T14:13:55.528Z,99058.91
2022-09-10T14:16:41.045Z,99059.44
2022-09-10T14:19:15.379Z,99059.78
2022-09-10T14:21:42.628Z,99063.78
2022-09-10T14:24:31.739Z,99062.06
2022-09-10T14:27:25.869Z,99055.91
2022-09-10T14:29:56.422Z,99063.09
2022-09-10T14:32:26.119Z,99053.63
2022-09-10T14:34:52.867Z,99069.56
2022-09-10T14:37:32.363Z,99067.75
2022-09-10T14:40:15.536Z,99064.38
2022-09-10T14:42:42.308Z,99071.50
2022-09-10T14:45:38.160Z,99075.22
2022-09-10T14:48:06.162Z,99093.31
2022-09-10T14:50:34.797Z,99099.09
2022-09-10T14:53:01.789Z,99094.22
2022-09-10T14:55:30.720Z,99114.50
2022-09-10T14:57:57.595Z,99095.41
2022-09-10T15:00:24.559Z,99091.44
2022-09-10T15:02:52.208Z,99105.97
2022-09-10T15:05:18.987Z,99104.97
2022-09-10T15:07:47.130Z,99095.34
2022-09-10T15:10:14.254Z,99105.22
2022-09-10T15:12:44.015Z,99107.66
2022-09-10T15:15:17.261Z,99107.75
2022-09-10T15:17:44.475Z,99102.59
2022-09-10T15:20:15.182Z,99101.31
2022-09-10T15:22:41.966Z,99092.78
2022-09-10T15:25:23.351Z,99100.44
2022-09-10T15:27:50.392Z,99100.16
2022-09-10T15:30:17.038Z,99101.41
2022-09-10T15:32:45.921Z,99096.09
2022-09-10T15:35:12.955Z,99093.16
2022-09-10T15:37:40.449Z,99101.56
2022-09-10T15:40:07.970Z,99114.28
2022-09-10T15:42:35.035Z,99110.31
2022-09-10T15:45:01.698Z,99122.19
2022-09-10T15:47:28.363Z,99120.47
2022-09-10T15:49:55.051Z,99131.28
2022-09-10T15:52:21.705Z,99132.28
2022-09-10T15:54:48.310Z,99134.41
2022-09-10T15:57:14.974Z,99139.06
2022-09-10T15:59:41.729Z,99138.25
2022-09-10T16:02:09.893Z,99137.34
2022-09-10T16:04:38.560Z,99139.78
2022-09-10T16:07:08.816Z,99142.50
2022-09-10T16:09:35.444Z,99133.63
2022-09-10T16:12:02.322Z,99143.13
2022-09-10T16:14:32.929Z,99137.59
2022-09-10T16:17:00.962Z,99133.31
2022-09-10T16:19:27.719Z,99128.69
2022-09-10T16:21:54.398Z,99132.03
2022-09-10T16:24:21.141Z,99130.09
2022-09-10T16:26:49.168Z,99124.59
2022-09-10T16:29:17.747Z,99133.28
2022-09-10T16:31:47.270Z,99132.09
2022-09-10T16:34:17.631Z,99123.78
2022-09-10T16:36:45.273Z,99134.72
2022-09-10T16:39:13.932Z,99126.66
2022-09-10T16:41:42.825Z,99137.28
2022-09-10T16:44:11.163Z,99133.34
2022-09-10T16:46:38.611Z,99154.91
2022-09-10T16:49:05.979Z,99150.22
2022-09-10T16:51:35.114Z,99138.97
2022-09-10T16:54:03.842Z,99156.91
2022-09-10T16:56:42.929Z,99159.81
2022-09-10T16:59:15.527Z,99161.44
2022-09-10T17:01:48.370Z,99160.00
2022-09-10T17:04:24.592Z,99159.53
2022-09-10T17:06:52.967Z,99160.91
2022-09-10T17:09:19.756Z,99157.00
2022-09-10T17:11:46.397Z,99153.44
2022-09-10T17:14:13.043Z,99141.06
2022-09-10T17:16:40.915Z,99153.47
2022-09-10T17:19:11.163Z,99153.25
2022-09-10T17:21:39.192Z,99156.59
2022-09-10T17:24:07.825Z,99160.75
2022-09-10T17:26:37.292Z,99168.06
2022-09-10T17:29:06.546Z,99167.50
2022-09-10T17:31:33.846Z,99165.34
2022-09-10T17:34:01.088Z,99168.94
2022-09-10T17:36:28.114Z,99170.66
2022-09-10T17:38:55.689Z,99172.25
2022-09-10T17:41:23.561Z,99170.88
2022-09-10T17:43:50.964Z,99173.69
2022-09-10T17:46:20.332Z,99171.50
2022-09-10T17:48:48.403Z,99178.25
2022-09-10T17:51:21.475Z,99173.41
2022-09-10T17:53:48.799Z,99181.31
2022-09-10T17:56:17.449Z,99184.31
2022-09-10T17:58:44.188Z,99195.44
2022-09-10T18:01:12.892Z,99185.19
2022-09-10T18:03:40.224Z,99185.47
2022-09-10T18:06:10.571Z,99175.59
2022-09-10T18:08:38.884Z,99185.09
2022-09-10T18:11:17.547Z,99183.78
2022-09-10T18:13:44.951Z,99184.84
2022-09-10T18:16:15.057Z,99187.88
2022-09-10T18:18:42.284Z,99196.53
2022-09-10T18:21:20.339Z,99190.03
2022-09-10T18:23:55.918Z,99192.00
2022-09-10T18:26:25.306Z,99192.56
2022-09-10T18:29:00.600Z,99193.03
2022-09-10T18:31:29.414Z,99187.38
2022-09-10T18:33:56.234Z,99186.59
2022-09-10T18:36:24.397Z,99181.19
2022-09-10T18:38:51.649Z,99199.38
2022-09-10T18:41:26.811Z,99191.78
2022-09-10T18:43:56.281Z,99198.28
2022-09-10T18:46:23.763Z,99198.56
2022-09-10T18:48:50.952Z,99198.53
2022-09-10T18:51:20.623Z,99208.31
2022-09-10T18:53:47.568Z,99205.09
2022-09-10T18:56:19.709Z,99218.88
2022-09-10T18:58:53.514Z,99226.75
2022-09-10T19:01:20.542Z,99224.03
2022-09-10T19:03:48.669Z,99221.03
2022-09-10T19:06:23.975Z,99221.03
2022-09-10T19:08:53.359Z,99225.38
2022-09-10T19:11:21.736Z,99224.28
2022-09-10T19:13:50.475Z,99224.53
2022-09-10T19:16:18.183Z,99225.09
2022-09-10T19:18:52.399Z,99231.28
2022-09-10T19:21:22.863Z,99231.31
2022-09-10T19:23:50.586Z,99234.31
2022-09-10T19:26:18.747Z,99239.41
2022-09-10T19:28:47.774Z,99243.47
2022-09-10T19:31:16.893Z,99239.66
2022-09-10T19:33:43.610Z,99240.22
2022-09-10T19:36:12.762Z,99244.81
2022-09-10T19:38:39.398Z,99237.78
2022-09-10T19:41:07.271Z,99236.13
2022-09-10T19:43:36.161Z,99229.63
2022-09-10T19:46:07.185Z,99236.97
2022-09-10T19:48:34.342Z,99231.84
2022-09-10T19:51:02.512Z,99234.81
2022-09-10T19:53:31.556Z,99233.72
2022-09-10T19:56:10.162Z,99231.00
2022-09-10T19:58:37.878Z,99227.50
2022-09-10T20:01:15.211Z,99219.88
2022-09-10T20:03:44.766Z,99223.63
2022-09-10T20:06:12.958Z,99215.81
2022-09-10T20:08:40.378Z,99210.94
2022-09-10T20:11:11.263Z,99214.22
2022-09-10T20:13:38.053Z,99209.59
2022-09-10T20:16:06.169Z,99213.13
2022-09-10T20:18:34.343Z,99212.31
2022-09-10T20:21:11.838Z,99210.94
2022-09-10T20:23:39.598Z,99212.78
2022-09-10T20:26:25.471Z,99204.75
2022-09-10T20:28:57.044Z,99206.06
2022-09-10T20:31:26.256Z,99205.50
2022-09-10T20:33:57.942Z,99199.84
2022-09-10T20:36:25.658Z,99206.06
2022-09-10T20:38:53.335Z,99199.03
2022-09-10T20:41:20.603Z,99202.56
2022-09-10T20:43:54.172Z,99206.91
2022-09-10T20:46:22.394Z,99198.25
2022-09-10T20:48:50.879Z,99204.78
2022-09-10T20:51:18.882Z,99202.88
2022-09-10T20:53:45.822Z,99198.53
2022-09-10T20:56:14.998Z,99200.41
2022-09-10T20:58:41.914Z,99200.97
2022-09-10T21:01:22.786Z,99198.00
2022-09-10T21:03:52.139Z,99206.09
2022-09-10T21:06:20.215Z,99204.78
2022-09-10T21:08:47.995Z,99206.91
2022-09-10T21:11:17.123Z,99201.81
2022-09-10T21:13:45.165Z,99202.06
2022-09-10T21:16:19.934Z,99197.75
2022-09-10T21:18:52.246Z,99203.16
2022-09-10T21:21:23.152Z,99208.03
2022-09-10T21:23:51.916Z,99206.16
2022-09-10T21:26:21.071Z,99197.22
2022-09-10T21:28:47.940Z,99196.72
2022-09-10T21:31:14.722Z,99190.47
2022-09-10T21:33:42.353Z,99196.97
2022-09-10T21:36:17.386Z,99185.88
2022-09-10T21:38:52.228Z,99188.31
2022-09-10T21:41:25.938Z,99173.94
2022-09-10T21:43:52.628Z,99182.63
2022-09-10T21:46:20.659Z,99182.06
2022-09-10T21:48:47.372Z,99178.00
2022-09-10T21:51:16.825Z,99181.25
2022-09-10T21:53:44.092Z,99177.72
2022-09-10T21:56:16.148Z,99175.56
2022-09-10T21:58:45.340Z,99180.16
2022-09-10T22:01:20.667Z,99166.13
2022-09-10T22:03:48.373Z,99169.34
2022-09-10T22:06:23.301Z,99168.56
2022-09-10T22:08:52.719Z,99160.97
2022-09-10T22:11:23.986Z,99164.75
2022-09-10T22:13:52.948Z,99165.31
2022-09-10T22:16:20.903Z,99168.00
2022-09-10T22:18:47.737Z,99165.56
2022-09-10T22:21:14.907Z,99175.59
2022-09-10T22:23:41.654Z,99175.31
2022-09-10T22:26:13.282Z,99171.53
2022-09-10T22:28:40.446Z,99165.88
2022-09-10T22:31:18.330Z,99165.56
2022-09-10T22:33:50.102Z,99178.84
2022-09-10T22:36:23.684Z,99180.72
2022-09-10T22:38:56.231Z,99176.13
2022-09-10T22:41:23.209Z,99188.31
2022-09-10T22:43:50.395Z,99184.75
2022-09-10T22:46:17.904Z,99181.53
2022-09-10T22:48:45.512Z,99181.81
2022-09-10T22:51:18.166Z,99183.41
2022-09-10T22:53:46.038Z,99189.13
2022-09-10T22:56:14.288Z,99187.75
2022-09-10T22:58:41.406Z,99192.34
2022-09-10T23:01:10.881Z,99192.84
2022-09-10T23:03:38.532Z,99202.59
2022-09-10T23:06:11.110Z,99205.56
2022-09-10T23:08:40.864Z,99195.03
2022-09-10T23:11:16.604Z,99194.78
2022-09-10T23:13:44.849Z,99192.91
2022-09-10T23:16:14.495Z,99184.78
2022-09-10T23:18:42.660Z,99183.44
2022-09-10T23:21:09.763Z,99176.41
2022-09-10T23:23:36.565Z,99188.81
2022-09-10T23:26:12.959Z,99188.53
2022-09-10T23:28:39.921Z,99182.03
2022-09-10T23:31:08.285Z,99182.03
2022-09-10T23:33:35.157Z,99194.47
2022-09-10T23:36:03.727Z,99180.97
2022-09-10T23:38:31.601Z,99197.16
2022-09-10T23:41:02.224Z,99192.03
2022-09-10T23:43:29.078Z,99183.16
2022-09-10T23:45:55.914Z,99187.72
2022-09-10T23:48:24.013Z,99188.53
2022-09-10T23:50:54.428Z,99186.69
2022-09-10T23:53:21.978Z,99189.41
2022-09-10T23:55:48.715Z,99192.66
2022-09-10T23:58:17.039Z,99197.50
